Time;durP1;ratioP1;P1;durP2;ratioP2;P2;SDS_P1;SDS_P2;PMS_P1;PMS_P2;Temp;Humidity;BMP_temperature;BMP_pressure;BME280_temperature;BME280_humidity;BME280_pressure;Samples;Min_cycle;Max_cycle;Signal;HPM_P1;HPM_P2
2022/09/27 00:01:16;;;;;;;8.27;1.23;;;11.10;99.90;;;;;;5075585;28;20044;-66
2022/09/27 00:03:42;;;;;;;7.70;1.70;;;11.20;99.90;;;;;;5075724;28;20048;-66
2022/09/27 00:06:24;;;;;;;8.27;2.13;;;11.20;99.90;;;;;;5075443;28;20048;-66
2022/09/27 00:08:50;;;;;;;11.03;1.20;;;11.20;99.90;;;;;;5075387;28;20289;-67
2022/09/27 00:11:38;;;;;;;6.20;1.27;;;11.10;99.90;;;;;;5075980;28;20278;-66
2022/09/27 00:14:05;;;;;;;10.67;1.40;;;11.10;99.90;;;;;;5057484;28;20393;-66
2022/09/27 00:16:33;;;;;;;8.13;1.20;;;11.10;99.90;;;;;;5075505;28;20302;-66
2022/09/27 00:19:01;;;;;;;7.80;1.27;;;11.10;99.90;;;;;;5075176;28;20723;-66
2022/09/27 00:21:29;;;;;;;8.30;1.40;;;11.10;99.90;;;;;;5075435;28;20274;-66
2022/09/27 00:23:55;;;;;;;6.23;1.07;;;11.00;99.90;;;;;;5075280;28;20279;-66
2022/09/27 00:26:21;;;;;;;5.97;1.10;;;11.00;99.90;;;;;;5075342;28;20282;-66
2022/09/27 00:28:47;;;;;;;10.43;1.50;;;11.00;99.90;;;;;;5075553;28;20275;-66
2022/09/27 00:31:22;;;;;;;6.73;1.27;;;11.00;99.90;;;;;;5075047;28;20313;-66
2022/09/27 00:33:50;;;;;;;7.75;1.05;;;10.90;99.90;;;;;;5075436;28;20435;-66
2022/09/27 00:36:17;;;;;;;7.27;1.03;;;10.80;99.90;;;;;;5074984;28;20140;-66
2022/09/27 00:38:43;;;;;;;5.93;1.13;;;10.90;99.90;;;;;;5075162;28;20299;-66
2022/09/27 00:41:15;;;;;;;10.30;1.80;;;10.80;99.90;;;;;;5074888;28;20271;-66
2022/09/27 00:43:54;;;;;;;5.47;1.10;;;10.80;99.90;;;;;;5075174;28;20271;-66
2022/09/27 00:46:44;;;;;;;8.13;1.30;;;10.80;99.90;;;;;;5075242;28;20340;-66
2022/09/27 00:49:28;;;;;;;7.30;1.20;;;10.80;99.90;;;;;;5074820;28;20615;-66
2022/09/27 00:52:07;;;;;;;6.37;1.10;;;10.70;99.90;;;;;;5074701;28;20294;-69
2022/09/27 00:54:35;;;;;;;6.07;1.20;;;10.70;99.90;;;;;;5057335;28;20314;-66
2022/09/27 00:57:02;;;;;;;5.03;1.00;;;10.70;99.90;;;;;;5074624;28;20281;-66
2022/09/27 00:59:54;;;;;;;4.90;0.80;;;10.70;99.90;;;;;;5074717;28;20397;-66
2022/09/27 01:02:20;;;;;;;4.83;0.90;;;10.70;99.90;;;;;;5074405;28;20812;-66
2022/09/27 01:04:46;;;;;;;9.17;1.33;;;10.70;99.90;;;;;;5074626;28;20282;-66
2022/09/27 01:07:12;;;;;;;4.87;0.90;;;10.70;99.90;;;;;;5074385;28;20048;-66
2022/09/27 01:09:38;;;;;;;4.63;0.93;;;10.70;99.90;;;;;;5074265;28;20632;-66
2022/09/27 01:12:38;;;;;;;6.07;1.20;;;10.60;99.90;;;;;;5073245;28;20324;-67
2022/09/27 01:15:32;;;;;;;4.60;0.70;;;10.60;99.90;;;;;;5074008;28;20271;-66
2022/09/27 01:18:10;;;;;;;4.40;1.17;;;10.60;99.90;;;;;;5074083;28;20297;-67
2022/09/27 01:21:16;;;;;;;6.33;0.97;;;10.60;99.90;;;;;;5074432;28;20278;-66
2022/09/27 01:23:51;;;;;;;;;;;10.60;99.90;;;;;;5025473;28;20290;-66
2022/09/27 01:26:39;;;;;;;3.67;0.77;;;10.50;99.90;;;;;;5073952;28;19927;-66
2022/09/27 01:29:35;;;;;;;4.63;1.20;;;10.50;99.90;;;;;;5046558;28;20344;-66
2022/09/27 01:32:10;;;;;;;6.47;1.00;;;10.50;99.90;;;;;;5073994;28;20313;-66
2022/09/27 01:35:06;;;;;;;5.05;1.27;;;10.50;99.90;;;;;;5074114;28;20049;-66
2022/09/27 01:37:41;;;;;;;5.50;1.03;;;10.60;99.90;;;;;;5036189;28;20106;-66
2022/09/27 01:40:28;;;;;;;6.22;1.20;;;10.60;99.90;;;;;;5073691;28;20333;-67
2022/09/27 01:43:03;;;;;;;5.33;1.33;;;10.70;99.90;;;;;;5073900;28;20506;-66
2022/09/27 01:45:44;;;;;;;7.28;1.48;;;10.70;99.90;;;;;;5073823;28;20747;-67
2022/09/27 01:48:16;;;;;;;10.13;1.60;;;10.80;99.90;;;;;;5073634;28;20374;-66
2022/09/27 01:50:48;;;;;;;7.03;1.20;;;10.80;99.90;;;;;;5073835;28;20271;-66
2022/09/27 01:53:21;;;;;;;9.30;1.13;;;10.80;99.90;;;;;;5073341;28;20283;-66
2022/09/27 01:55:50;;;;;;;4.53;0.90;;;10.80;99.90;;;;;;5073649;28;20283;-66
2022/09/27 01:58:45;;;;;;;8.90;1.90;;;10.80;99.90;;;;;;5073164;28;20762;-66
2022/09/27 02:01:13;;;;;;;3.97;0.95;;;10.80;99.90;;;;;;5064162;28;20318;-67
2022/09/27 02:03:44;;;;;;;5.73;1.20;;;10.80;99.90;;;;;;5073476;28;20098;-66
2022/09/27 02:06:19;;;;;;;8.83;1.20;;;10.80;99.90;;;;;;5073337;28;20448;-67
2022/09/27 02:08:58;;;;;;;3.55;0.93;;;10.70;99.90;;;;;;5073421;28;20762;-66
2022/09/27 02:11:23;;;;;;;5.23;0.90;;;10.80;99.90;;;;;;5055325;28;20055;-66
2022/09/27 02:14:03;;;;;;;3.73;0.90;;;10.70;99.90;;;;;;5073308;28;20283;-66
2022/09/27 02:16:44;;;;;;;5.23;0.70;;;10.70;99.90;;;;;;5073334;28;20052;-66
2022/09/27 02:19:29;;;;;;;6.30;1.47;;;10.70;99.90;;;;;;5072989;28;20386;-67
2022/09/27 02:22:32;;;;;;;5.00;0.90;;;10.70;99.90;;;;;;5073142;28;20774;-66
2022/09/27 02:25:10;;;;;;;4.27;0.87;;;10.60;99.90;;;;;;5073186;28;20290;-66
2022/09/27 02:28:04;;;;;;;6.70;1.10;;;10.60;99.90;;;;;;5073379;28;20267;-66
2022/09/27 02:30:30;;;;;;;7.57;0.77;;;10.70;99.90;;;;;;5073155;28;20275;-66
2022/09/27 02:32:56;;;;;;;7.23;0.97;;;10.60;99.90;;;;;;5073252;28;20429;-66
2022/09/27 02:35:25;;;;;;;7.23;1.10;;;10.60;99.90;;;;;;5072771;28;20358;-67
2022/09/27 02:37:51;;;;;;;5.17;1.20;;;10.60;99.90;;;;;;5073023;28;20190;-66
2022/09/27 02:40:17;;;;;;;5.43;0.90;;;10.60;99.90;;;;;;5072644;28;20388;-66
2022/09/27 02:42:44;;;;;;;4.63;0.80;;;10.60;99.90;;;;;;5072639;28;20722;-66
2022/09/27 02:45:11;;;;;;;5.97;1.10;;;10.70;99.90;;;;;;5072575;28;20040;-67
2022/09/27 02:48:05;;;;;;;8.10;1.33;;;10.70;99.90;;;;;;5073095;28;20376;-66
2022/09/27 02:50:57;;;;;;;4.00;0.80;;;10.60;99.90;;;;;;5072586;28;20281;-66
2022/09/27 02:53:29;;;;;;;4.23;0.70;;;10.70;99.90;;;;;;5072650;28;20627;-66
2022/09/27 02:56:13;;;;;;;4.90;1.07;;;10.60;99.90;;;;;;5072794;28;20279;-66
2022/09/27 02:59:19;;;;;;;4.23;0.80;;;10.60;99.90;;;;;;5072650;28;20592;-66
2022/09/27 03:02:02;;;;;;;5.50;0.70;;;10.60;99.90;;;;;;5072982;28;20279;-66
2022/09/27 03:04:47;;;;;;;3.73;0.90;;;10.60;99.90;;;;;;5072478;28;20037;-66
2022/09/27 03:07:14;;;;;;;3.75;0.82;;;10.50;99.90;;;;;;5072430;28;20781;-66
2022/09/27 03:09:48;;;;;;;6.00;0.87;;;10.50;99.90;;;;;;5072656;28;20037;-66
2022/09/27 03:12:19;;;;;;;6.07;1.57;;;10.50;99.90;;;;;;5072397;28;20271;-66
2022/09/27 03:14:45;;;;;;;4.67;1.00;;;10.50;99.90;;;;;;5072655;28;20271;-66
2022/09/27 03:17:11;;;;;;;7.47;0.70;;;10.50;99.90;;;;;;5052487;28;20687;-66
2022/09/27 03:19:37;;;;;;;3.40;1.10;;;10.50;99.90;;;;;;5052372;28;20287;-66
2022/09/27 03:22:03;;;;;;;3.47;0.73;;;10.50;99.90;;;;;;5052748;28;20139;-66
2022/09/27 03:24:28;;;;;;;6.13;0.90;;;10.50;99.90;;;;;;5052196;28;20056;-66
2022/09/27 03:26:54;;;;;;;5.40;0.90;;;10.50;99.90;;;;;;5052522;28;20090;-66
2022/09/27 03:29:20;;;;;;;6.00;0.90;;;10.40;99.90;;;;;;5034379;28;20045;-67
2022/09/27 03:31:45;;;;;;;7.77;1.30;;;10.50;99.90;;;;;;5035194;28;20126;-66
2022/09/27 03:34:11;;;;;;;3.73;0.90;;;10.40;99.90;;;;;;5052606;28;20203;-66
2022/09/27 03:36:37;;;;;;;5.37;1.20;;;10.40;99.90;;;;;;5038315;28;20127;-66
2022/09/27 03:39:02;;;;;;;4.60;1.07;;;10.40;99.90;;;;;;5056410;28;20060;-66
2022/09/27 03:41:28;;;;;;;4.97;1.20;;;10.40;99.90;;;;;;5055938;28;20052;-66
2022/09/27 03:43:56;;;;;;;8.20;1.40;;;10.40;99.90;;;;;;5055784;28;20052;-66
2022/09/27 03:46:22;;;;;;;7.60;1.50;;;10.40;99.90;;;;;;5055874;28;20087;-66
2022/09/27 03:48:48;;;;;;;8.17;1.40;;;10.40;99.90;;;;;;5056161;28;20353;-66
2022/09/27 03:51:13;;;;;;;2.97;0.70;;;10.40;99.90;;;;;;5055905;28;20044;-66
2022/09/27 03:53:39;;;;;;;3.37;0.70;;;10.40;99.90;;;;;;5055370;28;20053;-66
2022/09/27 03:56:05;;;;;;;5.33;0.80;;;10.40;99.90;;;;;;5056343;28;20076;-66
2022/09/27 03:58:31;;;;;;;4.20;0.80;;;10.40;99.90;;;;;;5055490;28;20070;-66
2022/09/27 04:00:56;;;;;;;5.30;0.97;;;10.40;99.90;;;;;;5038480;28;20092;-66
2022/09/27 04:03:22;;;;;;;5.83;0.93;;;10.40;99.90;;;;;;5038025;28;20055;-66
2022/09/27 04:05:48;;;;;;;4.87;0.77;;;10.40;99.90;;;;;;5055987;28;20493;-66
2022/09/27 04:08:13;;;;;;;3.43;0.90;;;10.30;99.90;;;;;;5055633;28;20044;-66
2022/09/27 04:10:41;;;;;;;3.53;0.87;;;10.30;99.90;;;;;;5055451;28;20059;-66
2022/09/27 04:13:06;;;;;;;4.90;0.70;;;10.20;99.90;;;;;;5055543;28;20123;-66
2022/09/27 04:15:32;;;;;;;3.63;0.70;;;10.20;99.90;;;;;;5061507;28;20378;-66
2022/09/27 04:17:58;;;;;;;4.80;1.10;;;10.20;99.90;;;;;;5075457;28;20055;-66
2022/09/27 04:20:23;;;;;;;7.13;1.20;;;10.20;99.90;;;;;;5075240;28;20048;-66
2022/09/27 04:22:50;;;;;;;3.57;0.90;;;10.20;99.90;;;;;;5075637;28;20052;-66
2022/09/27 04:25:15;;;;;;;4.73;1.10;;;10.20;99.90;;;;;;5075475;28;20055;-66
2022/09/27 04:27:45;;;;;;;5.73;0.90;;;10.20;99.90;;;;;;5075071;28;20279;-66
2022/09/27 04:30:12;;;;;;;5.80;1.43;;;10.20;99.90;;;;;;5075056;28;20488;-66
2022/09/27 04:32:42;;;;;;;4.63;0.90;;;10.20;99.90;;;;;;5075037;28;20374;-66
2022/09/27 04:37:53;;;;;;;4.03;0.68;;;10.10;99.90;;;;;;5075117;28;20279;-66
2022/09/27 04:40:21;;;;;;;5.97;1.50;;;10.10;99.90;;;;;;5075099;28;20048;-66
2022/09/27 04:42:47;;;;;;;6.23;1.70;;;10.10;99.90;;;;;;5074807;28;20084;-66
2022/09/27 04:45:13;;;;;;;2.30;0.70;;;10.10;99.90;;;;;;5075080;28;20275;-66
2022/09/27 04:47:43;;;;;;;5.03;0.90;;;10.00;99.90;;;;;;5056909;28;20604;-66
2022/09/27 04:50:09;;;;;;;6.77;1.10;;;10.00;99.90;;;;;;5074996;28;20049;-66
2022/09/27 04:52:34;;;;;;;6.60;1.00;;;10.00;99.90;;;;;;5074627;28;20274;-66
2022/09/27 04:55:00;;;;;;;4.30;0.90;;;9.90;99.90;;;;;;5074815;28;20842;-66
2022/09/27 04:57:26;;;;;;;8.07;1.17;;;10.00;99.90;;;;;;5074828;28;20044;-67
2022/09/27 04:59:51;;;;;;;4.30;0.70;;;9.90;99.90;;;;;;5074621;28;20041;-66
2022/09/27 05:02:17;;;;;;;5.00;1.10;;;10.00;99.90;;;;;;5074643;28;20047;-66
2022/09/27 05:04:43;;;;;;;3.20;0.70;;;9.90;99.90;;;;;;5074358;28;20049;-66
2022/09/27 05:07:08;;;;;;;4.70;0.97;;;9.90;99.90;;;;;;5056723;28;20051;-66
2022/09/27 05:09:34;;;;;;;5.90;1.10;;;10.00;99.90;;;;;;5074611;28;20048;-66
2022/09/27 05:12:00;;;;;;;4.47;1.10;;;9.90;99.90;;;;;;5074474;28;20052;-66
2022/09/27 05:14:26;;;;;;;5.43;0.90;;;9.90;99.90;;;;;;5056526;28;20045;-66
2022/09/27 05:16:53;;;;;;;5.73;0.93;;;9.90;99.90;;;;;;5056281;28;20062;-66
2022/09/27 05:19:19;;;;;;;4.43;0.90;;;9.90;99.90;;;;;;5074410;28;20116;-66
2022/09/27 05:21:44;;;;;;;7.33;1.00;;;9.90;99.90;;;;;;5056527;28;20695;-66
2022/09/27 05:24:10;;;;;;;11.10;1.30;;;9.90;99.90;;;;;;5074288;28;20094;-66
2022/09/27 05:26:36;;;;;;;7.47;1.20;;;9.90;99.90;;;;;;5073607;28;20110;-66
2022/09/27 05:29:03;;;;;;;4.00;0.90;;;9.90;99.90;;;;;;5074285;28;20044;-66
2022/09/27 05:31:29;;;;;;;4.63;1.13;;;9.90;99.90;;;;;;5074114;28;20279;-66
2022/09/27 05:33:54;;;;;;;7.97;1.30;;;9.90;99.90;;;;;;5074060;28;20285;-66
2022/09/27 05:36:22;;;;;;;4.87;1.30;;;9.90;99.90;;;;;;5074051;28;20476;-66
2022/09/27 05:38:48;;;;;;;12.37;1.67;;;9.90;99.90;;;;;;5073337;28;20477;-66
2022/09/27 05:41:14;;;;;;;5.70;1.27;;;10.00;99.90;;;;;;5073966;28;20314;-66
2022/09/27 05:43:40;;;;;;;7.37;0.90;;;10.00;99.90;;;;;;5073654;28;20116;-66
2022/09/27 05:46:06;;;;;;;5.70;1.00;;;10.00;99.90;;;;;;5073892;28;20829;-66
2022/09/27 05:48:32;;;;;;;6.60;1.30;;;10.10;99.90;;;;;;5073677;28;20050;-70
2022/09/27 05:50:58;;;;;;;6.17;1.07;;;10.10;99.90;;;;;;5074023;28;20400;-66
2022/09/27 05:53:24;;;;;;;5.30;1.10;;;10.10;99.90;;;;;;5073706;28;20049;-66
2022/09/27 05:55:50;;;;;;;4.50;0.90;;;10.00;99.90;;;;;;5073093;28;20287;-67
2022/09/27 05:58:15;;;;;;;4.23;1.07;;;10.10;99.90;;;;;;5073051;28;20044;-67
2022/09/27 06:00:42;;;;;;;8.00;1.43;;;10.10;99.90;;;;;;5073325;28;20361;-66
2022/09/27 06:03:11;;;;;;;5.23;1.40;;;10.10;99.90;;;;;;5055747;28;20063;-67
2022/09/27 06:05:38;;;;;;;8.10;1.07;;;10.10;99.90;;;;;;5073259;28;20271;-67
2022/09/27 06:08:07;;;;;;;5.27;1.10;;;10.20;99.90;;;;;;5073471;28;20384;-66
2022/09/27 06:10:34;;;;;;;8.80;1.47;;;10.20;99.90;;;;;;5073714;28;20286;-66
2022/09/27 06:13:05;;;;;;;4.13;1.03;;;10.20;99.90;;;;;;5073356;28;20283;-66
2022/09/27 06:15:32;;;;;;;5.17;1.00;;;10.20;99.90;;;;;;5073405;28;20290;-66
2022/09/27 06:18:06;;;;;;;5.50;1.20;;;10.20;99.90;;;;;;5072975;28;20336;-66
2022/09/27 06:20:32;;;;;;;5.00;0.80;;;10.30;99.90;;;;;;5055753;28;20283;-66
2022/09/27 06:23:17;;;;;;;4.50;1.00;;;10.30;99.90;;;;;;5072961;28;20285;-66
2022/09/27 06:25:43;;;;;;;6.60;1.00;;;10.30;99.90;;;;;;5055026;28;20283;-66
2022/09/27 06:28:09;;;;;;;7.47;1.33;;;10.30;99.90;;;;;;5055461;28;20287;-66
2022/09/27 06:30:39;;;;;;;5.80;1.17;;;10.30;99.90;;;;;;5073073;28;20044;-66
2022/09/27 06:33:05;;;;;;;9.23;1.47;;;10.30;99.90;;;;;;5072788;28;20630;-66
2022/09/27 06:35:33;;;;;;;6.57;1.40;;;10.30;99.90;;;;;;5073048;28;20306;-66
2022/09/27 06:38:08;;;;;;;6.27;1.67;;;10.40;99.90;;;;;;5072639;28;20282;-66
2022/09/27 06:40:35;;;;;;;8.07;1.30;;;10.40;99.90;;;;;;5055123;28;20771;-66
2022/09/27 06:43:11;;;;;;;7.70;1.00;;;10.40;99.90;;;;;;5054882;28;20282;-66
2022/09/27 06:45:37;;;;;;;9.47;1.47;;;10.40;99.90;;;;;;5072640;28;20778;-66
2022/09/27 06:48:07;;;;;;;4.47;1.13;;;10.50;99.90;;;;;;5072468;28;20443;-66
2022/09/27 06:50:38;;;;;;;9.13;1.30;;;10.50;99.90;;;;;;5072837;28;20286;-66
2022/09/27 06:53:05;;;;;;;5.67;1.00;;;10.50;99.90;;;;;;5072513;28;20278;-67
2022/09/27 06:55:31;;;;;;;7.80;1.10;;;10.50;99.90;;;;;;5072797;28;20389;-66
2022/09/27 07:00:46;;;;;;;6.17;1.00;;;10.50;99.90;;;;;;5072490;28;20275;-67
2022/09/27 07:03:13;;;;;;;6.87;1.17;;;10.50;99.90;;;;;;5072779;28;20283;-66
2022/09/27 07:05:41;;;;;;;4.30;0.90;;;10.60;99.90;;;;;;5072712;28;20631;-66
2022/09/27 07:08:10;;;;;;;5.50;1.10;;;10.70;99.90;;;;;;5054948;28;20369;-66
2022/09/27 07:10:38;;;;;;;5.50;0.90;;;10.70;99.90;;;;;;5075338;28;20275;-66
2022/09/27 07:13:09;;;;;;;2.47;0.63;;;10.70;99.90;;;;;;5058544;28;20279;-66
2022/09/27 07:15:36;;;;;;;3.37;0.80;;;10.70;99.90;;;;;;5076749;28;20287;-66
2022/09/27 07:18:04;;;;;;;3.83;0.80;;;10.80;99.90;;;;;;5076404;28;20689;-66
2022/09/27 07:20:30;;;;;;;5.27;0.80;;;10.90;99.90;;;;;;5076894;28;20365;-66
2022/09/27 07:22:57;;;;;;;6.27;1.30;;;10.90;99.90;;;;;;5076392;28;20835;-67
2022/09/27 07:25:23;;;;;;;3.27;0.97;;;10.90;99.90;;;;;;5076896;28;20404;-66
2022/09/27 07:27:49;;;;;;;3.27;0.63;;;11.00;99.90;;;;;;5076288;28;20341;-66
2022/09/27 07:30:15;;;;;;;2.53;0.63;;;11.00;99.90;;;;;;5076692;28;20275;-66
2022/09/27 07:32:42;;;;;;;1.60;0.60;;;11.00;99.90;;;;;;5076541;28;20059;-66
2022/09/27 07:35:09;;;;;;;4.63;1.10;;;11.10;99.90;;;;;;5076117;28;20631;-66
2022/09/27 07:37:36;;;;;;;4.10;0.97;;;11.10;99.90;;;;;;5076378;28;20385;-67
2022/09/27 07:40:06;;;;;;;6.17;1.40;;;11.10;99.90;;;;;;5076023;28;20762;-66
2022/09/27 07:42:32;;;;;;;3.77;1.60;;;11.20;99.90;;;;;;5076520;28;20279;-66
2022/09/27 07:44:58;;;;;;;5.80;1.50;;;11.30;99.90;;;;;;5058315;28;20326;-66
2022/09/27 07:47:24;;;;;;;4.50;1.20;;;11.40;99.90;;;;;;5076104;28;20314;-66
2022/09/27 07:49:55;;;;;;;14.37;2.77;;;11.40;99.90;;;;;;5057999;28;20088;-65
2022/09/27 07:52:21;;;;;;;2.97;1.00;;;11.40;99.90;;;;;;5076105;28;20279;-66
2022/09/27 07:54:47;;;;;;;8.70;1.70;;;11.30;99.90;;;;;;5075845;28;20282;-69
2022/09/27 07:57:14;;;;;;;4.87;1.33;;;11.30;99.90;;;;;;5075985;28;20282;-66
2022/09/27 07:59:40;;;;;;;4.23;1.10;;;11.30;99.90;;;;;;5058180;28;20041;-65
2022/09/27 08:02:12;;;;;;;4.77;1.57;;;11.30;99.90;;;;;;5075617;28;20365;-66
2022/09/27 08:04:38;;;;;;;5.17;1.00;;;11.20;99.90;;;;;;5075718;28;20612;-66
2022/09/27 08:07:04;;;;;;;6.97;1.33;;;11.30;99.90;;;;;;5075544;28;20290;-66
2022/09/27 08:09:30;;;;;;;4.57;1.60;;;11.30;99.90;;;;;;5041265;28;20181;-66
2022/09/27 08:11:57;;;;;;;7.47;1.80;;;11.30;99.90;;;;;;5075458;28;20040;-66
2022/09/27 08:14:23;;;;;;;9.90;1.70;;;11.40;99.90;;;;;;5058365;28;20048;-66
2022/09/27 08:16:50;;;;;;;9.03;2.13;;;11.50;99.90;;;;;;5075838;28;20301;-66
2022/09/27 08:19:17;;;;;;;7.83;1.60;;;11.60;99.90;;;;;;5075684;28;20342;-66
2022/09/27 08:21:43;;;;;;;5.47;1.63;;;11.70;99.90;;;;;;5075098;28;20275;-66
2022/09/27 08:24:09;;;;;;;5.67;1.10;;;11.80;99.90;;;;;;5075238;28;20274;-66
2022/09/27 08:26:35;;;;;;;3.83;1.10;;;11.90;99.90;;;;;;5075446;28;20274;-66
2022/09/27 08:29:01;;;;;;;3.30;0.83;;;12.10;99.90;;;;;;5057310;28;20644;-66
2022/09/27 08:31:27;;;;;;;6.87;1.10;;;12.30;99.90;;;;;;5075499;28;20055;-66
2022/09/27 08:33:53;;;;;;;5.00;1.17;;;12.40;99.90;;;;;;5075073;28;20075;-67
2022/09/27 08:36:22;;;;;;;7.60;1.00;;;12.60;99.90;;;;;;5075211;28;20051;-66
2022/09/27 08:38:50;;;;;;;7.43;1.27;;;12.70;99.90;;;;;;5057231;28;20131;-66
2022/09/27 08:41:46;;;;;;;5.83;1.00;;;12.70;99.90;;;;;;5074883;28;20293;-64
2022/09/27 08:44:16;;;;;;;7.95;1.00;;;12.70;99.90;;;;;;5074922;28;20278;-65
2022/09/27 08:46:42;;;;;;;3.60;0.67;;;12.80;99.90;;;;;;5075188;28;20439;-65
2022/09/27 08:49:40;;;;;;;8.63;1.40;;;12.80;99.90;;;;;;5074707;28;20279;-66
2022/09/27 08:52:11;;;;;;;4.20;0.70;;;12.80;99.90;;;;;;5054430;28;20060;-66
2022/09/27 08:54:37;;;;;;;4.33;0.90;;;12.70;99.90;;;;;;5075088;28;20271;-65
2022/09/27 08:57:14;;;;;;;4.07;0.90;;;12.70;99.90;;;;;;5057221;28;20697;-66
2022/09/27 08:59:44;;;;;;;3.10;0.80;;;12.70;99.90;;;;;;5075168;28;20294;-66
2022/09/27 09:02:23;;;;;;;3.93;0.90;;;12.80;99.90;;;;;;5074663;28;20279;-65
2022/09/27 09:04:56;;;;;;;2.80;1.20;;;12.70;99.90;;;;;;5074963;28;20357;-66
2022/09/27 09:07:34;;;;;;;4.20;0.77;;;12.70;99.90;;;;;;5074853;28;20354;-66
2022/09/27 09:10:00;;;;;;;6.50;0.90;;;12.70;99.90;;;;;;5074501;28;20279;-65
2022/09/27 09:12:46;;;;;;;7.43;1.30;;;12.80;99.90;;;;;;5075127;28;20297;-67
2022/09/27 09:15:17;;;;;;;5.30;1.10;;;12.80;99.90;;;;;;5074077;28;20092;-68
2022/09/27 09:18:37;;;;;;;5.60;1.13;;;12.80;99.90;;;;;;5074702;28;20289;-67
2022/09/27 09:21:19;;;;;;;6.30;1.17;;;12.90;99.90;;;;;;4956981;28;20368;-65
2022/09/27 09:23:52;;;;;;;6.53;1.60;;;12.90;99.90;;;;;;5064058;28;20286;-67
2022/09/27 09:26:20;;;;;;;9.07;1.10;;;12.90;99.90;;;;;;5074232;28;20335;-67
2022/09/27 09:28:46;;;;;;;6.90;1.37;;;;;;;;;;5074293;28;20275;-68
2022/09/27 09:31:33;;;;;;;8.70;1.43;;;13.00;99.90;;;;;;5073899;28;20321;-67
2022/09/27 09:34:19;;;;;;;7.53;1.30;;;13.10;99.90;;;;;;5055197;28;20289;-67
2022/09/27 09:37:10;;;;;;;6.53;1.40;;;13.10;99.90;;;;;;5071406;28;20287;-67
2022/09/27 09:39:54;;;;;;;6.30;1.27;;;13.10;99.90;;;;;;5054953;28;20299;-67
2022/09/27 09:42:33;;;;;;;4.83;1.00;;;13.10;99.90;;;;;;5073451;28;20278;-69
2022/09/27 09:45:02;;;;;;;10.13;1.20;;;13.20;99.90;;;;;;5074221;28;20654;-67
2022/09/27 09:47:58;;;;;;;5.07;1.30;;;13.20;99.90;;;;;;5073591;28;20703;-69
2022/09/27 09:50:42;;;;;;;5.13;0.90;;;13.20;99.90;;;;;;5054233;28;20297;-68
2022/09/27 09:53:41;;;;;;;5.10;0.80;;;13.30;99.90;;;;;;5070977;28;20287;-69
2022/09/27 09:56:18;;;;;;;7.50;1.00;;;13.40;99.90;;;;;;5073494;28;20754;-66
2022/09/27 09:58:49;;;;;;;4.80;1.10;;;13.40;99.90;;;;;;5073677;28;20291;-66
2022/09/27 10:01:42;;;;;;;4.70;1.30;;;13.50;99.90;;;;;;5073435;28;20278;-67
2022/09/27 10:04:24;;;;;;;7.10;1.30;;;13.50;99.90;;;;;;5073391;28;20809;-67
2022/09/27 10:06:50;;;;;;;6.37;1.10;;;13.50;99.90;;;;;;5055954;28;20290;-67
2022/09/27 10:09:21;;;;;;;3.97;1.20;;;13.50;99.90;;;;;;5073182;28;20274;-65
2022/09/27 10:11:47;;;;;;;5.17;0.90;;;13.40;99.90;;;;;;5072986;28;20311;-65
2022/09/27 10:14:16;;;;;;;7.23;1.47;;;13.40;99.90;;;;;;5072233;28;20329;-65
2022/09/27 10:16:47;;;;;;;3.97;1.00;;;13.20;99.90;;;;;;5072252;28;20064;-65
2022/09/27 10:19:17;;;;;;;6.03;1.53;;;13.20;99.90;;;;;;5073162;28;20340;-66
2022/09/27 10:21:48;;;;;;;5.87;1.10;;;13.10;99.90;;;;;;5073661;28;20299;-65
2022/09/27 10:24:16;;;;;;;4.13;0.90;;;13.00;99.90;;;;;;5073263;28;20287;-65
2022/09/27 10:26:44;;;;;;;6.47;1.20;;;13.00;99.90;;;;;;5073079;28;20283;-65
2022/09/27 10:29:18;;;;;;;5.23;1.10;;;13.00;99.90;;;;;;5073225;28;20297;-65
2022/09/27 10:31:46;;;;;;;6.53;0.90;;;;;;;;;;5073363;28;20279;-65
2022/09/27 10:34:23;;;;;;;4.57;1.00;;;12.70;99.90;;;;;;5072988;28;20048;-65
2022/09/27 10:37:12;;;;;;;2.20;0.70;;;12.60;99.90;;;;;;5073189;28;20282;-65
2022/09/27 10:39:40;;;;;;;4.60;1.17;;;12.60;99.90;;;;;;5057690;28;20361;-65
2022/09/27 10:42:35;;;;;;;4.37;0.90;;;12.50;99.90;;;;;;5055668;28;20326;-64
2022/09/27 10:45:32;;;;;;;4.67;0.83;;;12.50;99.90;;;;;;5073003;28;20370;-64
2022/09/27 10:48:00;;;;;;;3.37;0.73;;;12.50;99.90;;;;;;5073127;28;20282;-65
2022/09/27 10:50:30;;;;;;;4.70;1.20;;;12.60;99.90;;;;;;5072847;28;20333;-65
2022/09/27 10:53:21;;;;;;;6.03;1.00;;;12.60;99.90;;;;;;5073202;28;20275;-65
2022/09/27 10:55:49;;;;;;;7.13;1.07;;;12.70;99.90;;;;;;5073278;28;20283;-65
2022/09/27 10:58:23;;;;;;;4.10;0.93;;;12.80;99.90;;;;;;5072639;28;20303;-65
2022/09/27 11:00:59;;;;;;;5.90;1.23;;;12.80;99.90;;;;;;5073066;28;20311;-65
2022/09/27 11:03:27;;;;;;;5.07;0.90;;;12.80;99.90;;;;;;5072776;28;20367;-65
2022/09/27 11:05:54;;;;;;;7.10;0.90;;;12.80;99.90;;;;;;5055385;28;20334;-65
2022/09/27 11:08:32;;;;;;;2.57;1.07;;;12.90;99.90;;;;;;5072659;28;20289;-65
2022/09/27 11:11:13;;;;;;;5.77;1.00;;;13.00;99.90;;;;;;5072866;28;20274;-65
2022/09/27 11:13:39;;;;;;;6.00;1.17;;;13.00;99.90;;;;;;5073141;28;20643;-65
2022/09/27 11:16:23;;;;;;;7.57;1.00;;;13.10;99.90;;;;;;5072670;28;20372;-65
2022/09/27 11:19:03;;;;;;;7.43;1.20;;;13.20;99.90;;;;;;5072716;28;20298;-65
2022/09/27 11:21:50;;;;;;;5.33;1.00;;;13.10;99.90;;;;;;5072613;28;20428;-65
2022/09/27 11:24:25;;;;;;;6.27;1.00;;;13.10;99.90;;;;;;5072450;28;20432;-65
2022/09/27 11:27:04;;;;;;;4.45;0.95;;;13.10;99.90;;;;;;5072809;28;20279;-65
2022/09/27 11:29:51;;;;;;;1.43;0.60;;;13.10;99.90;;;;;;5072193;28;20559;-65
2022/09/27 11:32:51;;;;;;;1.90;0.67;;;13.10;99.90;;;;;;5072047;28;20284;-66
2022/09/27 11:36:00;;;;;;;2.57;0.73;;;13.10;99.90;;;;;;5072083;28;20279;-66
2022/09/27 11:39:08;;;;;;;3.53;0.70;;;13.20;99.90;;;;;;5072036;28;20343;-67
2022/09/27 11:41:54;;;;;;;3.83;0.87;;;13.30;99.90;;;;;;5025079;28;20299;-65
2022/09/27 11:44:44;;;;;;;6.30;1.20;;;13.20;99.90;;;;;;5072273;28;20286;-66
2022/09/27 11:47:27;;;;;;;2.13;0.77;;;13.20;99.90;;;;;;5072387;28;20283;-65
2022/09/27 11:50:06;;;;;;;2.50;0.57;;;13.10;99.90;;;;;;5072679;28;20283;-65
2022/09/27 11:52:58;;;;;;;4.27;0.87;;;13.10;99.90;;;;;;5072057;28;20289;-65
2022/09/27 11:55:24;;;;;;;6.60;1.27;;;13.00;99.90;;;;;;5072633;28;20306;-66
2022/09/27 11:58:28;;;;;;;6.77;1.00;;;13.00;99.90;;;;;;5076163;28;20283;-65
2022/09/27 12:01:29;;;;;;;5.73;0.93;;;13.10;99.90;;;;;;5071211;28;20057;-65
2022/09/27 12:04:16;;;;;;;4.70;1.20;;;13.10;99.90;;;;;;5037454;28;20286;-65
2022/09/27 12:06:51;;;;;;;3.50;1.17;;;13.20;99.90;;;;;;5075574;28;20283;-65
2022/09/27 12:09:27;;;;;;;1.85;0.80;;;13.20;99.90;;;;;;5058238;28;20782;-66
2022/09/27 12:12:24;;;;;;;4.83;0.90;;;13.20;99.90;;;;;;5076046;28;20060;-65
2022/09/27 12:15:04;;;;;;;3.70;1.10;;;13.30;99.90;;;;;;5074865;28;20291;-66
2022/09/27 12:17:37;;;;;;;4.00;0.80;;;13.30;99.90;;;;;;5075400;28;20289;-72
2022/09/27 12:20:13;;;;;;;3.53;0.90;;;13.40;99.90;;;;;;5056187;28;20380;-71
2022/09/27 12:22:59;;;;;;;1.67;0.80;;;13.50;99.90;;;;;;5073324;28;20279;-71
2022/09/27 12:25:30;;;;;;;2.37;0.90;;;13.50;99.90;;;;;;5057808;28;20345;-71
2022/09/27 12:28:15;;;;;;;5.47;1.03;;;13.50;99.90;;;;;;5075816;28;20297;-67
2022/09/27 12:30:43;;;;;;;2.67;0.97;;;13.50;99.90;;;;;;5075137;28;20835;-67
2022/09/27 12:33:28;;;;;;;3.30;1.17;;;13.50;99.90;;;;;;5075535;28;20354;-66
2022/09/27 12:35:59;;;;;;;4.47;0.80;;;13.60;99.90;;;;;;5075597;28;20282;-67
2022/09/27 12:38:44;;;;;;;3.07;0.70;;;13.60;99.90;;;;;;5075118;28;20123;-67
2022/09/27 12:41:15;;;;;;;2.87;1.00;;;13.70;99.90;;;;;;5075603;28;20279;-67
2022/09/27 12:43:45;;;;;;;4.63;0.87;;;13.70;99.90;;;;;;5075037;28;20278;-68
2022/09/27 12:46:25;;;;;;;4.73;1.20;;;13.70;99.90;;;;;;5057406;28;20352;-67
2022/09/27 12:48:57;;;;;;;5.63;1.30;;;13.60;99.90;;;;;;5075257;28;20373;-67
2022/09/27 12:51:23;;;;;;;5.33;0.97;;;13.40;99.90;;;;;;5057315;28;20286;-67
2022/09/27 12:54:19;;;;;;;5.23;1.30;;;13.20;99.90;;;;;;5074750;28;20279;-67
2022/09/27 12:57:00;;;;;;;3.27;0.90;;;13.00;99.90;;;;;;5074778;28;20279;-67
2022/09/27 12:59:39;;;;;;;3.47;0.80;;;12.90;99.90;;;;;;5074800;28;20303;-68
2022/09/27 13:02:42;;;;;;;5.07;1.43;;;12.90;99.90;;;;;;5075040;28;20283;-67
2022/09/27 13:05:27;;;;;;;3.60;0.80;;;13.00;99.90;;;;;;5074836;28;20287;-67
2022/09/27 13:08:44;;;;;;;3.30;1.17;;;13.10;99.90;;;;;;5073788;28;20278;-67
2022/09/27 13:11:25;;;;;;;4.20;0.80;;;13.20;99.90;;;;;;5016021;28;20061;-67
2022/09/27 13:13:58;;;;;;;1.93;0.70;;;13.20;99.90;;;;;;5074397;28;20283;-67
2022/09/27 13:16:24;;;;;;;2.13;0.67;;;13.10;99.90;;;;;;5074852;28;20318;-67
2022/09/27 13:18:51;;;;;;;1.67;0.60;;;12.90;99.90;;;;;;5074278;28;20306;-67
2022/09/27 13:21:45;;;;;;;3.03;1.00;;;12.80;99.90;;;;;;5074686;28;20311;-67
2022/09/27 13:24:36;;;;;;;2.40;0.80;;;12.80;99.90;;;;;;5056599;28;20287;-67
2022/09/27 13:27:22;;;;;;;3.40;0.73;;;12.70;99.90;;;;;;5074648;28;20318;-67